sensor_id;sensor_type;location;lat;lon;timestamp;P1;durP1;ratioP1;P2;durP2;ratioP2
3278;SDS011;1651;50.940;6.888;2022-12-07T00:01:46;27.03;;;18.50;;
3278;SDS011;1651;50.940;6.888;2022-12-07T00:04:13;29.38;;;17.33;;
3278;SDS011;1651;50.940;6.888;2022-12-07T00:06:40;32.05;;;18.95;;
3278;SDS011;1651;50.940;6.888;2022-12-07T00:09:08;25.65;;;17.95;;
3278;SDS011;1651;50.940;6.888;2022-12-07T00:11:38;27.92;;;18.98;;
3278;SDS011;1651;50.940;6.888;2022-12-07T00:14:05;25.83;;;19.17;;
3278;SDS011;1651;50.940;6.888;2022-12-07T00:16:33;32.97;;;19.38;;
3278;SDS011;1651;50.940;6.888;2022-12-07T00:19:00;24.98;;;17.60;;
3278;SDS011;1651;50.940;6.888;2022-12-07T00:21:27;30.10;;;18.30;;
3278;SDS011;1651;50.940;6.888;2022-12-07T00:23:53;28.63;;;19.08;;
3278;SDS011;1651;50.940;6.888;2022-12-07T00:26:24;26.55;;;18.67;;
3278;SDS011;1651;50.940;6.888;2022-12-07T00:28:53;20.45;;;16.38;;
3278;SDS011;1651;50.940;6.888;2022-12-07T00:31:20;28.67;;;18.30;;
3278;SDS011;1651;50.940;6.888;2022-12-07T00:33:50;26.88;;;17.20;;
3278;SDS011;1651;50.940;6.888;2022-12-07T00:36:19;27.80;;;18.73;;
3278;SDS011;1651;50.940;6.888;2022-12-07T00:38:45;27.65;;;18.13;;
3278;SDS011;1651;50.940;6.888;2022-12-07T00:41:12;32.10;;;19.98;;
3278;SDS011;1651;50.940;6.888;2022-12-07T00:43:38;31.92;;;18.05;;
3278;SDS011;1651;50.940;6.888;2022-12-07T00:46:04;29.45;;;17.58;;
3278;SDS011;1651;50.940;6.888;2022-12-07T00:48:30;28.10;;;19.30;;
3278;SDS011;1651;50.940;6.888;2022-12-07T00:50:56;27.83;;;18.07;;
3278;SDS011;1651;50.940;6.888;2022-12-07T00:53:26;27.58;;;17.92;;
3278;SDS011;1651;50.940;6.888;2022-12-07T00:56:20;25.63;;;17.80;;
3278;SDS011;1651;50.940;6.888;2022-12-07T00:58:53;26.75;;;17.77;;
3278;SDS011;1651;50.940;6.888;2022-12-07T01:01:21;28.42;;;18.05;;
3278;SDS011;1651;50.940;6.888;2022-12-07T01:03:47;29.17;;;19.13;;
3278;SDS011;1651;50.940;6.888;2022-12-07T01:06:14;29.55;;;17.65;;
3278;SDS011;1651;50.940;6.888;2022-12-07T01:08:40;25.10;;;17.73;;
3278;SDS011;1651;50.940;6.888;2022-12-07T01:11:07;27.80;;;17.83;;
3278;SDS011;1651;50.940;6.888;2022-12-07T01:13:34;27.35;;;17.25;;
3278;SDS011;1651;50.940;6.888;2022-12-07T01:16:01;30.50;;;17.60;;
3278;SDS011;1651;50.940;6.888;2022-12-07T01:18:31;31.48;;;17.55;;
3278;SDS011;1651;50.940;6.888;2022-12-07T01:20:58;29.85;;;18.45;;
3278;SDS011;1651;50.940;6.888;2022-12-07T01:23:24;27.02;;;17.75;;
3278;SDS011;1651;50.940;6.888;2022-12-07T01:25:54;25.60;;;17.90;;
3278;SDS011;1651;50.940;6.888;2022-12-07T01:28:20;25.80;;;19.27;;
3278;SDS011;1651;50.940;6.888;2022-12-07T01:30:54;24.73;;;17.92;;
3278;SDS011;1651;50.940;6.888;2022-12-07T01:33:20;32.58;;;20.33;;
3278;SDS011;1651;50.940;6.888;2022-12-07T01:35:46;26.90;;;18.10;;
3278;SDS011;1651;50.940;6.888;2022-12-07T01:38:12;27.30;;;17.80;;
3278;SDS011;1651;50.940;6.888;2022-12-07T01:40:38;27.83;;;18.08;;
3278;SDS011;1651;50.940;6.888;2022-12-07T01:43:09;30.20;;;17.67;;
3278;SDS011;1651;50.940;6.888;2022-12-07T01:45:40;27.88;;;19.27;;
3278;SDS011;1651;50.940;6.888;2022-12-07T01:48:07;27.60;;;18.48;;
3278;SDS011;1651;50.940;6.888;2022-12-07T01:50:34;27.70;;;18.10;;
3278;SDS011;1651;50.940;6.888;2022-12-07T01:53:02;24.85;;;17.02;;
3278;SDS011;1651;50.940;6.888;2022-12-07T01:55:29;24.88;;;17.30;;
3278;SDS011;1651;50.940;6.888;2022-12-07T01:57:55;22.42;;;16.88;;
3278;SDS011;1651;50.940;6.888;2022-12-07T02:00:21;29.08;;;17.77;;
3278;SDS011;1651;50.940;6.888;2022-12-07T02:02:48;30.55;;;17.98;;
3278;SDS011;1651;50.940;6.888;2022-12-07T02:05:17;27.98;;;17.27;;
3278;SDS011;1651;50.940;6.888;2022-12-07T02:07:45;26.77;;;18.30;;
3278;SDS011;1651;50.940;6.888;2022-12-07T02:10:14;25.55;;;17.67;;
3278;SDS011;1651;50.940;6.888;2022-12-07T02:12:40;26.65;;;17.73;;
3278;SDS011;1651;50.940;6.888;2022-12-07T02:15:06;25.33;;;18.25;;
3278;SDS011;1651;50.940;6.888;2022-12-07T02:17:37;29.88;;;17.60;;
3278;SDS011;1651;50.940;6.888;2022-12-07T02:20:17;29.02;;;17.17;;
3278;SDS011;1651;50.940;6.888;2022-12-07T02:22:51;29.65;;;17.52;;
3278;SDS011;1651;50.940;6.888;2022-12-07T02:27:46;27.93;;;18.10;;
3278;SDS011;1651;50.940;6.888;2022-12-07T02:30:19;27.17;;;17.85;;
3278;SDS011;1651;50.940;6.888;2022-12-07T02:35:30;31.52;;;19.20;;
3278;SDS011;1651;50.940;6.888;2022-12-07T02:42:55;26.30;;;18.10;;
3278;SDS011;1651;50.940;6.888;2022-12-07T02:45:23;28.52;;;18.13;;
3278;SDS011;1651;50.940;6.888;2022-12-07T02:47:51;27.58;;;17.70;;
3278;SDS011;1651;50.940;6.888;2022-12-07T02:50:20;29.42;;;19.00;;
3278;SDS011;1651;50.940;6.888;2022-12-07T02:52:47;28.60;;;19.00;;
3278;SDS011;1651;50.940;6.888;2022-12-07T02:55:13;30.00;;;18.88;;
3278;SDS011;1651;50.940;6.888;2022-12-07T02:57:43;31.13;;;20.08;;
3278;SDS011;1651;50.940;6.888;2022-12-07T03:00:14;28.33;;;18.30;;
3278;SDS011;1651;50.940;6.888;2022-12-07T03:02:53;29.15;;;19.15;;
3278;SDS011;1651;50.940;6.888;2022-12-07T03:05:30;29.92;;;19.40;;
3278;SDS011;1651;50.940;6.888;2022-12-07T03:08:13;35.45;;;20.27;;
3278;SDS011;1651;50.940;6.888;2022-12-07T03:22:26;34.95;;;19.63;;
3278;SDS011;1651;50.940;6.888;2022-12-07T03:25:00;26.73;;;17.13;;
3278;SDS011;1651;50.940;6.888;2022-12-07T03:27:47;29.63;;;19.88;;
3278;SDS011;1651;50.940;6.888;2022-12-07T03:30:18;30.23;;;18.25;;
3278;SDS011;1651;50.940;6.888;2022-12-07T03:37:48;27.58;;;17.38;;
3278;SDS011;1651;50.940;6.888;2022-12-07T03:42:47;27.27;;;17.95;;
3278;SDS011;1651;50.940;6.888;2022-12-07T03:45:16;29.20;;;18.83;;
3278;SDS011;1651;50.940;6.888;2022-12-07T03:50:25;24.20;;;18.10;;
3278;SDS011;1651;50.940;6.888;2022-12-07T03:52:56;23.50;;;17.65;;
3278;SDS011;1651;50.940;6.888;2022-12-07T03:55:26;29.27;;;18.60;;
3278;SDS011;1651;50.940;6.888;2022-12-07T03:57:53;28.02;;;18.23;;
3278;SDS011;1651;50.940;6.888;2022-12-07T04:00:21;27.48;;;18.30;;
3278;SDS011;1651;50.940;6.888;2022-12-07T04:02:50;24.98;;;17.55;;
3278;SDS011;1651;50.940;6.888;2022-12-07T04:05:23;31.17;;;18.15;;
3278;SDS011;1651;50.940;6.888;2022-12-07T04:08:07;31.95;;;19.70;;
3278;SDS011;1651;50.940;6.888;2022-12-07T04:13:55;28.73;;;19.67;;
3278;SDS011;1651;50.940;6.888;2022-12-07T04:16:41;28.23;;;17.73;;
3278;SDS011;1651;50.940;6.888;2022-12-07T04:19:07;27.42;;;17.13;;
3278;SDS011;1651;50.940;6.888;2022-12-07T04:21:33;28.60;;;17.87;;
3278;SDS011;1651;50.940;6.888;2022-12-07T04:23:59;31.73;;;18.67;;
3278;SDS011;1651;50.940;6.888;2022-12-07T04:26:25;27.23;;;17.93;;
3278;SDS011;1651;50.940;6.888;2022-12-07T04:28:51;29.50;;;19.48;;
3278;SDS011;1651;50.940;6.888;2022-12-07T04:37:03;27.75;;;18.23;;
3278;SDS011;1651;50.940;6.888;2022-12-07T04:39:30;28.88;;;18.77;;
3278;SDS011;1651;50.940;6.888;2022-12-07T04:41:57;26.98;;;17.27;;
3278;SDS011;1651;50.940;6.888;2022-12-07T04:44:24;25.85;;;17.77;;
3278;SDS011;1651;50.940;6.888;2022-12-07T04:46:50;29.05;;;18.45;;
3278;SDS011;1651;50.940;6.888;2022-12-07T04:49:19;29.13;;;17.48;;
3278;SDS011;1651;50.940;6.888;2022-12-07T04:51:49;25.15;;;16.77;;
3278;SDS011;1651;50.940;6.888;2022-12-07T05:00:33;31.30;;;17.85;;
3278;SDS011;1651;50.940;6.888;2022-12-07T05:02:59;34.10;;;20.73;;
3278;SDS011;1651;50.940;6.888;2022-12-07T05:05:25;29.93;;;19.10;;
3278;SDS011;1651;50.940;6.888;2022-12-07T05:07:51;26.87;;;17.20;;
3278;SDS011;1651;50.940;6.888;2022-12-07T05:10:18;28.60;;;16.53;;
3278;SDS011;1651;50.940;6.888;2022-12-07T05:12:44;26.73;;;18.88;;
3278;SDS011;1651;50.940;6.888;2022-12-07T05:15:12;27.10;;;17.58;;
3278;SDS011;1651;50.940;6.888;2022-12-07T05:17:38;26.13;;;18.42;;
3278;SDS011;1651;50.940;6.888;2022-12-07T05:20:04;27.93;;;18.40;;
3278;SDS011;1651;50.940;6.888;2022-12-07T05:22:30;23.98;;;17.95;;
3278;SDS011;1651;50.940;6.888;2022-12-07T05:24:56;25.30;;;17.57;;
3278;SDS011;1651;50.940;6.888;2022-12-07T05:27:22;26.17;;;17.53;;
3278;SDS011;1651;50.940;6.888;2022-12-07T05:29:49;23.63;;;16.80;;
3278;SDS011;1651;50.940;6.888;2022-12-07T05:32:18;27.67;;;17.40;;
3278;SDS011;1651;50.940;6.888;2022-12-07T05:34:44;28.85;;;17.83;;
3278;SDS011;1651;50.940;6.888;2022-12-07T05:37:10;25.33;;;17.98;;
3278;SDS011;1651;50.940;6.888;2022-12-07T05:39:36;25.63;;;19.00;;
3278;SDS011;1651;50.940;6.888;2022-12-07T05:42:07;25.85;;;17.10;;
3278;SDS011;1651;50.940;6.888;2022-12-07T05:44:40;25.52;;;18.25;;
3278;SDS011;1651;50.940;6.888;2022-12-07T05:47:06;29.02;;;17.40;;
3278;SDS011;1651;50.940;6.888;2022-12-07T05:49:32;27.20;;;18.33;;
3278;SDS011;1651;50.940;6.888;2022-12-07T05:51:59;28.63;;;17.48;;
3278;SDS011;1651;50.940;6.888;2022-12-07T05:54:25;33.72;;;17.50;;
3278;SDS011;1651;50.940;6.888;2022-12-07T05:56:51;23.87;;;16.83;;
3278;SDS011;1651;50.940;6.888;2022-12-07T05:59:17;24.87;;;17.70;;
3278;SDS011;1651;50.940;6.888;2022-12-07T06:04:15;28.00;;;17.10;;
3278;SDS011;1651;50.940;6.888;2022-12-07T06:06:41;30.50;;;17.50;;
3278;SDS011;1651;50.940;6.888;2022-12-07T06:09:07;34.30;;;20.67;;
3278;SDS011;1651;50.940;6.888;2022-12-07T06:11:33;28.50;;;18.33;;
3278;SDS011;1651;50.940;6.888;2022-12-07T06:14:18;27.55;;;17.90;;
3278;SDS011;1651;50.940;6.888;2022-12-07T06:16:44;30.20;;;18.33;;
3278;SDS011;1651;50.940;6.888;2022-12-07T06:19:10;30.30;;;19.05;;
3278;SDS011;1651;50.940;6.888;2022-12-07T06:24:43;28.90;;;18.90;;
3278;SDS011;1651;50.940;6.888;2022-12-07T06:27:09;37.40;;;20.20;;
3278;SDS011;1651;50.940;6.888;2022-12-07T06:32:56;35.38;;;19.20;;
3278;SDS011;1651;50.940;6.888;2022-12-07T06:35:22;28.42;;;18.85;;
3278;SDS011;1651;50.940;6.888;2022-12-07T06:37:48;35.97;;;21.07;;
3278;SDS011;1651;50.940;6.888;2022-12-07T06:40:14;29.52;;;20.30;;
3278;SDS011;1651;50.940;6.888;2022-12-07T06:42:40;36.97;;;19.00;;
3278;SDS011;1651;50.940;6.888;2022-12-07T06:45:06;30.05;;;19.92;;
3278;SDS011;1651;50.940;6.888;2022-12-07T06:47:32;29.77;;;20.55;;
3278;SDS011;1651;50.940;6.888;2022-12-07T06:49:58;34.50;;;20.70;;
3278;SDS011;1651;50.940;6.888;2022-12-07T06:52:24;32.72;;;20.42;;
3278;SDS011;1651;50.940;6.888;2022-12-07T06:54:50;33.00;;;20.30;;
3278;SDS011;1651;50.940;6.888;2022-12-07T06:57:16;31.83;;;20.77;;
3278;SDS011;1651;50.940;6.888;2022-12-07T06:59:43;30.63;;;18.80;;
3278;SDS011;1651;50.940;6.888;2022-12-07T07:02:09;33.72;;;22.15;;
3278;SDS011;1651;50.940;6.888;2022-12-07T07:04:35;34.78;;;19.80;;
3278;SDS011;1651;50.940;6.888;2022-12-07T07:07:03;30.42;;;19.52;;
3278;SDS011;1651;50.940;6.888;2022-12-07T07:09:29;29.88;;;19.38;;
3278;SDS011;1651;50.940;6.888;2022-12-07T07:11:55;25.83;;;18.40;;
3278;SDS011;1651;50.940;6.888;2022-12-07T07:14:22;28.75;;;18.17;;
3278;SDS011;1651;50.940;6.888;2022-12-07T07:16:48;29.13;;;20.48;;
3278;SDS011;1651;50.940;6.888;2022-12-07T07:19:14;33.23;;;19.80;;
3278;SDS011;1651;50.940;6.888;2022-12-07T07:21:43;30.55;;;19.85;;
3278;SDS011;1651;50.940;6.888;2022-12-07T07:24:09;30.47;;;19.97;;
3278;SDS011;1651;50.940;6.888;2022-12-07T07:26:35;25.33;;;19.15;;
3278;SDS011;1651;50.940;6.888;2022-12-07T07:29:01;32.30;;;20.53;;
3278;SDS011;1651;50.940;6.888;2022-12-07T07:31:27;35.58;;;21.33;;
3278;SDS011;1651;50.940;6.888;2022-12-07T07:33:53;27.67;;;19.50;;
3278;SDS011;1651;50.940;6.888;2022-12-07T07:36:19;35.77;;;21.30;;
3278;SDS011;1651;50.940;6.888;2022-12-07T07:38:45;31.90;;;20.13;;
3278;SDS011;1651;50.940;6.888;2022-12-07T07:41:11;31.03;;;20.00;;
3278;SDS011;1651;50.940;6.888;2022-12-07T07:43:37;33.42;;;20.92;;
3278;SDS011;1651;50.940;6.888;2022-12-07T07:46:03;32.60;;;19.47;;
3278;SDS011;1651;50.940;6.888;2022-12-07T07:48:29;39.63;;;24.58;;
3278;SDS011;1651;50.940;6.888;2022-12-07T07:50:55;28.77;;;18.33;;
3278;SDS011;1651;50.940;6.888;2022-12-07T07:53:21;39.10;;;21.67;;
3278;SDS011;1651;50.940;6.888;2022-12-07T07:55:51;33.75;;;20.60;;
3278;SDS011;1651;50.940;6.888;2022-12-07T07:58:19;31.42;;;20.27;;
3278;SDS011;1651;50.940;6.888;2022-12-07T08:00:45;30.90;;;20.48;;
3278;SDS011;1651;50.940;6.888;2022-12-07T08:03:11;31.07;;;19.77;;
3278;SDS011;1651;50.940;6.888;2022-12-07T08:05:37;30.23;;;20.10;;
3278;SDS011;1651;50.940;6.888;2022-12-07T08:08:03;26.70;;;18.90;;
3278;SDS011;1651;50.940;6.888;2022-12-07T08:10:29;30.55;;;20.38;;
3278;SDS011;1651;50.940;6.888;2022-12-07T08:12:57;27.73;;;18.08;;
3278;SDS011;1651;50.940;6.888;2022-12-07T08:15:35;26.45;;;17.42;;
3278;SDS011;1651;50.940;6.888;2022-12-07T08:18:02;29.90;;;17.85;;
3278;SDS011;1651;50.940;6.888;2022-12-07T08:20:29;31.07;;;18.87;;
3278;SDS011;1651;50.940;6.888;2022-12-07T08:22:55;26.30;;;16.75;;
3278;SDS011;1651;50.940;6.888;2022-12-07T08:25:21;27.37;;;18.83;;
3278;SDS011;1651;50.940;6.888;2022-12-07T08:27:47;34.73;;;19.33;;
3278;SDS011;1651;50.940;6.888;2022-12-07T08:30:13;34.90;;;21.58;;
3278;SDS011;1651;50.940;6.888;2022-12-07T08:32:39;35.72;;;19.95;;
3278;SDS011;1651;50.940;6.888;2022-12-07T08:35:06;35.00;;;18.25;;
3278;SDS011;1651;50.940;6.888;2022-12-07T08:37:32;29.30;;;16.98;;
3278;SDS011;1651;50.940;6.888;2022-12-07T08:39:59;29.85;;;17.45;;
3278;SDS011;1651;50.940;6.888;2022-12-07T08:42:24;25.20;;;15.63;;
3278;SDS011;1651;50.940;6.888;2022-12-07T08:44:54;23.17;;;15.32;;
3278;SDS011;1651;50.940;6.888;2022-12-07T08:47:20;25.58;;;14.98;;
3278;SDS011;1651;50.940;6.888;2022-12-07T08:49:47;21.60;;;14.20;;
3278;SDS011;1651;50.940;6.888;2022-12-07T08:52:15;28.90;;;15.88;;
3278;SDS011;1651;50.940;6.888;2022-12-07T08:54:41;22.55;;;14.43;;
3278;SDS011;1651;50.940;6.888;2022-12-07T08:57:07;21.75;;;14.13;;
3278;SDS011;1651;50.940;6.888;2022-12-07T08:59:34;19.85;;;14.13;;
3278;SDS011;1651;50.940;6.888;2022-12-07T09:02:01;21.17;;;13.80;;
3278;SDS011;1651;50.940;6.888;2022-12-07T09:04:27;17.50;;;12.93;;
3278;SDS011;1651;50.940;6.888;2022-12-07T09:06:54;22.60;;;13.20;;
3278;SDS011;1651;50.940;6.888;2022-12-07T09:09:20;19.08;;;12.35;;
3278;SDS011;1651;50.940;6.888;2022-12-07T09:11:46;18.87;;;12.70;;
3278;SDS011;1651;50.940;6.888;2022-12-07T09:14:12;20.38;;;11.93;;
3278;SDS011;1651;50.940;6.888;2022-12-07T09:16:39;14.43;;;10.85;;
3278;SDS011;1651;50.940;6.888;2022-12-07T09:19:05;16.10;;;11.82;;
3278;SDS011;1651;50.940;6.888;2022-12-07T09:21:31;16.58;;;11.90;;
3278;SDS011;1651;50.940;6.888;2022-12-07T09:23:57;18.30;;;11.57;;
3278;SDS011;1651;50.940;6.888;2022-12-07T09:26:25;15.10;;;10.70;;
3278;SDS011;1651;50.940;6.888;2022-12-07T09:28:51;19.15;;;11.32;;
3278;SDS011;1651;50.940;6.888;2022-12-07T09:31:17;14.93;;;10.40;;
3278;SDS011;1651;50.940;6.888;2022-12-07T09:33:43;16.48;;;11.10;;
3278;SDS011;1651;50.940;6.888;2022-12-07T09:36:09;13.38;;;9.93;;
3278;SDS011;1651;50.940;6.888;2022-12-07T09:38:35;17.53;;;9.10;;
3278;SDS011;1651;50.940;6.888;2022-12-07T09:41:05;13.50;;;9.57;;
3278;SDS011;1651;50.940;6.888;2022-12-07T09:43:32;16.20;;;10.57;;
3278;SDS011;1651;50.940;6.888;2022-12-07T09:45:59;13.52;;;9.27;;
3278;SDS011;1651;50.940;6.888;2022-12-07T09:50:51;16.13;;;10.47;;
3278;SDS011;1651;50.940;6.888;2022-12-07T09:53:36;18.70;;;11.40;;
3278;SDS011;1651;50.940;6.888;2022-12-07T09:56:03;15.77;;;10.88;;
3278;SDS011;1651;50.940;6.888;2022-12-07T09:58:29;14.05;;;9.10;;
3278;SDS011;1651;50.940;6.888;2022-12-07T10:01:01;15.43;;;9.02;;
3278;SDS011;1651;50.940;6.888;2022-12-07T10:03:31;11.00;;;8.77;;
3278;SDS011;1651;50.940;6.888;2022-12-07T10:05:57;14.55;;;9.38;;
3278;SDS011;1651;50.940;6.888;2022-12-07T10:08:24;15.17;;;8.83;;
3278;SDS011;1651;50.940;6.888;2022-12-07T10:10:52;11.52;;;7.85;;
3278;SDS011;1651;50.940;6.888;2022-12-07T10:13:19;14.98;;;9.10;;
3278;SDS011;1651;50.940;6.888;2022-12-07T10:15:57;13.15;;;8.02;;
3278;SDS011;1651;50.940;6.888;2022-12-07T10:18:31;11.82;;;7.05;;
3278;SDS011;1651;50.940;6.888;2022-12-07T10:23:30;12.07;;;8.48;;
3278;SDS011;1651;50.940;6.888;2022-12-07T10:25:56;11.63;;;7.60;;
3278;SDS011;1651;50.940;6.888;2022-12-07T10:28:22;11.00;;;7.70;;
3278;SDS011;1651;50.940;6.888;2022-12-07T10:30:52;13.70;;;9.00;;
3278;SDS011;1651;50.940;6.888;2022-12-07T10:35:56;13.07;;;8.30;;
3278;SDS011;1651;50.940;6.888;2022-12-07T10:38:22;13.32;;;8.95;;
3278;SDS011;1651;50.940;6.888;2022-12-07T10:41:02;10.02;;;8.10;;
3278;SDS011;1651;50.940;6.888;2022-12-07T10:43:28;10.73;;;8.93;;
3278;SDS011;1651;50.940;6.888;2022-12-07T10:48:32;15.77;;;8.80;;
3278;SDS011;1651;50.940;6.888;2022-12-07T10:51:14;10.65;;;7.20;;
3278;SDS011;1651;50.940;6.888;2022-12-07T11:09:46;11.07;;;6.57;;
3278;SDS011;1651;50.940;6.888;2022-12-07T11:12:16;11.52;;;6.97;;
3278;SDS011;1651;50.940;6.888;2022-12-07T11:20:02;12.63;;;6.72;;
3278;SDS011;1651;50.940;6.888;2022-12-07T11:27:24;10.57;;;5.80;;
3278;SDS011;1651;50.940;6.888;2022-12-07T11:37:43;8.98;;;5.18;;
3278;SDS011;1651;50.940;6.888;2022-12-07T11:45:28;10.27;;;5.00;;
3278;SDS011;1651;50.940;6.888;2022-12-07T11:48:12;8.57;;;6.82;;
3278;SDS011;1651;50.940;6.888;2022-12-07T11:50:48;10.25;;;5.65;;
3278;SDS011;1651;50.940;6.888;2022-12-07T12:03:33;12.07;;;7.65;;
3278;SDS011;1651;50.940;6.888;2022-12-07T12:05:59;17.58;;;8.73;;
3278;SDS011;1651;50.940;6.888;2022-12-07T12:13:29;11.63;;;8.63;;
3278;SDS011;1651;50.940;6.888;2022-12-07T12:18:32;12.57;;;7.50;;
3278;SDS011;1651;50.940;6.888;2022-12-07T12:21:06;15.18;;;9.30;;
3278;SDS011;1651;50.940;6.888;2022-12-07T12:23:39;22.65;;;9.20;;
3278;SDS011;1651;50.940;6.888;2022-12-07T12:26:07;16.17;;;9.57;;
3278;SDS011;1651;50.940;6.888;2022-12-07T12:28:40;23.63;;;8.73;;
3278;SDS011;1651;50.940;6.888;2022-12-07T12:33:56;16.98;;;8.00;;
3278;SDS011;1651;50.940;6.888;2022-12-07T12:36:26;20.05;;;9.70;;
3278;SDS011;1651;50.940;6.888;2022-12-07T12:51:47;13.63;;;8.37;;
3278;SDS011;1651;50.940;6.888;2022-12-07T12:54:15;14.18;;;8.32;;
3278;SDS011;1651;50.940;6.888;2022-12-07T12:59:22;12.45;;;7.90;;
3278;SDS011;1651;50.940;6.888;2022-12-07T13:01:49;12.35;;;7.45;;
3278;SDS011;1651;50.940;6.888;2022-12-07T13:04:27;10.48;;;6.70;;
3278;SDS011;1651;50.940;6.888;2022-12-07T13:06:53;12.07;;;6.60;;
3278;SDS011;1651;50.940;6.888;2022-12-07T13:09:27;13.45;;;6.82;;
3278;SDS011;1651;50.940;6.888;2022-12-07T13:12:11;8.93;;;6.80;;
3278;SDS011;1651;50.940;6.888;2022-12-07T13:17:11;9.50;;;6.65;;
3278;SDS011;1651;50.940;6.888;2022-12-07T13:24:55;25.60;;;8.60;;
3278;SDS011;1651;50.940;6.888;2022-12-07T13:27:22;10.57;;;8.02;;
3278;SDS011;1651;50.940;6.888;2022-12-07T13:29:48;9.35;;;7.80;;
3278;SDS011;1651;50.940;6.888;2022-12-07T13:32:24;11.57;;;8.55;;
3278;SDS011;1651;50.940;6.888;2022-12-07T13:34:50;16.45;;;8.43;;
3278;SDS011;1651;50.940;6.888;2022-12-07T13:37:30;9.50;;;8.00;;
3278;SDS011;1651;50.940;6.888;2022-12-07T13:39:57;13.68;;;9.18;;
3278;SDS011;1651;50.940;6.888;2022-12-07T13:42:30;14.00;;;7.50;;
3278;SDS011;1651;50.940;6.888;2022-12-07T13:44:59;15.02;;;7.65;;
3278;SDS011;1651;50.940;6.888;2022-12-07T13:47:31;11.40;;;8.02;;
3278;SDS011;1651;50.940;6.888;2022-12-07T13:49:57;13.63;;;8.00;;
3278;SDS011;1651;50.940;6.888;2022-12-07T13:52:24;15.23;;;7.93;;
3278;SDS011;1651;50.940;6.888;2022-12-07T13:54:58;10.13;;;6.43;;
3278;SDS011;1651;50.940;6.888;2022-12-07T13:57:24;11.85;;;7.53;;
3278;SDS011;1651;50.940;6.888;2022-12-07T13:59:51;10.48;;;7.25;;
3278;SDS011;1651;50.940;6.888;2022-12-07T14:02:18;10.63;;;7.40;;
3278;SDS011;1651;50.940;6.888;2022-12-07T14:04:52;10.23;;;7.35;;
3278;SDS011;1651;50.940;6.888;2022-12-07T14:07:22;11.52;;;7.70;;
3278;SDS011;1651;50.940;6.888;2022-12-07T14:12:21;8.05;;;6.55;;
3278;SDS011;1651;50.940;6.888;2022-12-07T14:14:49;11.57;;;7.68;;
3278;SDS011;1651;50.940;6.888;2022-12-07T14:17:16;12.70;;;7.22;;
3278;SDS011;1651;50.940;6.888;2022-12-07T14:22:17;11.50;;;7.30;;
3278;SDS011;1651;50.940;6.888;2022-12-07T14:24:44;12.88;;;8.70;;
3278;SDS011;1651;50.940;6.888;2022-12-07T14:27:20;19.90;;;8.50;;
3278;SDS011;1651;50.940;6.888;2022-12-07T14:29:53;11.48;;;7.43;;
3278;SDS011;1651;50.940;6.888;2022-12-07T14:32:21;12.48;;;9.10;;
3278;SDS011;1651;50.940;6.888;2022-12-07T14:34:53;12.27;;;7.95;;
3278;SDS011;1651;50.940;6.888;2022-12-07T14:37:19;11.48;;;7.85;;
3278;SDS011;1651;50.940;6.888;2022-12-07T14:39:45;14.40;;;8.30;;
3278;SDS011;1651;50.940;6.888;2022-12-07T14:42:11;15.83;;;8.40;;
3278;SDS011;1651;50.940;6.888;2022-12-07T14:44:37;11.55;;;6.97;;
3278;SDS011;1651;50.940;6.888;2022-12-07T14:47:03;11.85;;;8.25;;
3278;SDS011;1651;50.940;6.888;2022-12-07T14:49:29;10.07;;;7.60;;
3278;SDS011;1651;50.940;6.888;2022-12-07T14:51:55;12.97;;;8.23;;
3278;SDS011;1651;50.940;6.888;2022-12-07T14:54:21;13.68;;;8.25;;
3278;SDS011;1651;50.940;6.888;2022-12-07T14:56:51;16.55;;;9.93;;
3278;SDS011;1651;50.940;6.888;2022-12-07T14:59:18;13.90;;;9.25;;
3278;SDS011;1651;50.940;6.888;2022-12-07T15:01:44;14.68;;;9.95;;
3278;SDS011;1651;50.940;6.888;2022-12-07T15:04:11;12.10;;;8.30;;
3278;SDS011;1651;50.940;6.888;2022-12-07T15:06:37;11.70;;;9.10;;
3278;SDS011;1651;50.940;6.888;2022-12-07T15:09:03;12.07;;;7.85;;
3278;SDS011;1651;50.940;6.888;2022-12-07T15:11:29;15.75;;;9.45;;
3278;SDS011;1651;50.940;6.888;2022-12-07T15:13:55;14.30;;;8.80;;
3278;SDS011;1651;50.940;6.888;2022-12-07T15:16:33;14.55;;;9.23;;
3278;SDS011;1651;50.940;6.888;2022-12-07T15:19:01;13.20;;;9.80;;
3278;SDS011;1651;50.940;6.888;2022-12-07T15:21:28;13.93;;;9.05;;
3278;SDS011;1651;50.940;6.888;2022-12-07T15:23:56;11.45;;;8.25;;
3278;SDS011;1651;50.940;6.888;2022-12-07T15:26:26;10.00;;;7.30;;
3278;SDS011;1651;50.940;6.888;2022-12-07T15:28:53;12.73;;;9.38;;
3278;SDS011;1651;50.940;6.888;2022-12-07T15:31:21;18.50;;;9.20;;
3278;SDS011;1651;50.940;6.888;2022-12-07T15:33:47;10.88;;;8.48;;
3278;SDS011;1651;50.940;6.888;2022-12-07T15:36:20;10.90;;;9.20;;
3278;SDS011;1651;50.940;6.888;2022-12-07T15:38:47;14.93;;;10.25;;
3278;SDS011;1651;50.940;6.888;2022-12-07T15:41:13;12.82;;;9.38;;
3278;SDS011;1651;50.940;6.888;2022-12-07T15:43:39;13.50;;;8.23;;
3278;SDS011;1651;50.940;6.888;2022-12-07T15:46:28;11.05;;;8.57;;
3278;SDS011;1651;50.940;6.888;2022-12-07T15:48:54;9.60;;;8.38;;
3278;SDS011;1651;50.940;6.888;2022-12-07T15:51:20;12.80;;;8.73;;
3278;SDS011;1651;50.940;6.888;2022-12-07T15:53:46;13.93;;;8.40;;
3278;SDS011;1651;50.940;6.888;2022-12-07T15:56:12;13.63;;;8.27;;
3278;SDS011;1651;50.940;6.888;2022-12-07T15:58:38;15.00;;;9.90;;
3278;SDS011;1651;50.940;6.888;2022-12-07T16:01:11;12.07;;;8.47;;
3278;SDS011;1651;50.940;6.888;2022-12-07T16:03:43;18.17;;;8.52;;
3278;SDS011;1651;50.940;6.888;2022-12-07T16:06:10;13.95;;;8.50;;
3278;SDS011;1651;50.940;6.888;2022-12-07T16:08:36;12.75;;;8.40;;
3278;SDS011;1651;50.940;6.888;2022-12-07T16:11:06;8.85;;;6.97;;
3278;SDS011;1651;50.940;6.888;2022-12-07T16:13:32;12.15;;;7.22;;
3278;SDS011;1651;50.940;6.888;2022-12-07T16:16:09;10.43;;;6.50;;
3278;SDS011;1651;50.940;6.888;2022-12-07T16:18:36;11.63;;;6.05;;
3278;SDS011;1651;50.940;6.888;2022-12-07T16:23:32;5.10;;;4.60;;
3278;SDS011;1651;50.940;6.888;2022-12-07T16:26:06;8.32;;;4.60;;
3278;SDS011;1651;50.940;6.888;2022-12-07T16:28:32;9.38;;;4.97;;
3278;SDS011;1651;50.940;6.888;2022-12-07T16:31:05;8.30;;;4.93;;
3278;SDS011;1651;50.940;6.888;2022-12-07T16:33:32;7.57;;;4.60;;
3278;SDS011;1651;50.940;6.888;2022-12-07T16:36:00;6.13;;;4.93;;
3278;SDS011;1651;50.940;6.888;2022-12-07T16:38:26;6.80;;;3.97;;
3278;SDS011;1651;50.940;6.888;2022-12-07T16:40:52;7.22;;;3.40;;
3278;SDS011;1651;50.940;6.888;2022-12-07T16:43:18;4.30;;;3.72;;
3278;SDS011;1651;50.940;6.888;2022-12-07T16:45:45;4.03;;;3.50;;
3278;SDS011;1651;50.940;6.888;2022-12-07T16:48:12;10.07;;;3.80;;
3278;SDS011;1651;50.940;6.888;2022-12-07T16:50:39;5.60;;;3.90;;
3278;SDS011;1651;50.940;6.888;2022-12-07T16:53:06;4.70;;;3.38;;
3278;SDS011;1651;50.940;6.888;2022-12-07T16:55:34;8.00;;;3.40;;
3278;SDS011;1651;50.940;6.888;2022-12-07T16:58:00;6.93;;;4.35;;
3278;SDS011;1651;50.940;6.888;2022-12-07T17:00:27;5.87;;;4.63;;
3278;SDS011;1651;50.940;6.888;2022-12-07T17:02:54;7.53;;;5.15;;
3278;SDS011;1651;50.940;6.888;2022-12-07T17:05:20;8.55;;;4.65;;
3278;SDS011;1651;50.940;6.888;2022-12-07T17:08:02;6.22;;;4.70;;
3278;SDS011;1651;50.940;6.888;2022-12-07T17:10:30;7.43;;;5.55;;
3278;SDS011;1651;50.940;6.888;2022-12-07T17:13:07;6.55;;;5.55;;
3278;SDS011;1651;50.940;6.888;2022-12-07T17:16:04;8.23;;;5.35;;
3278;SDS011;1651;50.940;6.888;2022-12-07T17:18:32;12.18;;;5.65;;
3278;SDS011;1651;50.940;6.888;2022-12-07T17:21:02;8.98;;;5.70;;
3278;SDS011;1651;50.940;6.888;2022-12-07T17:23:29;9.63;;;6.45;;
3278;SDS011;1651;50.940;6.888;2022-12-07T17:25:55;10.00;;;6.13;;
3278;SDS011;1651;50.940;6.888;2022-12-07T17:28:25;8.02;;;6.50;;
3278;SDS011;1651;50.940;6.888;2022-12-07T17:30:51;9.25;;;7.68;;
3278;SDS011;1651;50.940;6.888;2022-12-07T17:33:17;11.55;;;7.50;;
3278;SDS011;1651;50.940;6.888;2022-12-07T17:35:44;14.60;;;8.05;;
3278;SDS011;1651;50.940;6.888;2022-12-07T17:38:10;10.83;;;8.27;;
3278;SDS011;1651;50.940;6.888;2022-12-07T17:40:36;7.97;;;7.17;;